createdAt,value
2023-11-04T00:02:20.971Z,96825.70
2023-11-04T00:07:23.981Z,96827.52
2023-11-04T00:12:27.027Z,96829.73
2023-11-04T00:17:30.533Z,96823.19
2023-11-04T00:22:33.520Z,96823.58
2023-11-04T00:27:36.605Z,96821.41
2023-11-04T00:32:39.850Z,96828.84
2023-11-04T00:37:42.946Z,96826.98
2023-11-04T00:42:46.188Z,96814.34
2023-11-04T00:47:49.328Z,96812.23
2023-11-04T00:52:52.381Z,96817.98
2023-11-04T00:57:56.808Z,96814.33
2023-11-04T01:02:59.872Z,96801.36
2023-11-04T01:08:02.980Z,96800.85
2023-11-04T01:13:05.951Z,96792.00
2023-11-04T01:18:09.562Z,96798.96
2023-11-04T01:23:13.314Z,96800.65
2023-11-04T01:28:16.403Z,96807.30
2023-11-04T01:33:19.865Z,96802.69
2023-11-04T01:38:23.015Z,96800.40
2023-11-04T01:43:30.884Z,96810.36
2023-11-04T01:48:33.984Z,96805.63
2023-11-04T01:53:38.513Z,96810.04
2023-11-04T01:58:46.217Z,96812.84
2023-11-04T02:03:49.162Z,96816.77
2023-11-04T02:08:52.436Z,96833.33
2023-11-04T02:13:55.433Z,96846.34
2023-11-04T02:18:59.099Z,96853.12
2023-11-04T02:24:02.278Z,96854.41
2023-11-04T02:29:05.603Z,96866.06
2023-11-04T02:34:08.656Z,96892.80
2023-11-04T02:39:11.703Z,96909.60
2023-11-04T02:44:15.124Z,96940.90
2023-11-04T02:49:18.185Z,96951.98
2023-11-04T02:54:21.243Z,96954.08
2023-11-04T02:59:25.829Z,96961.10
2023-11-04T03:04:29.047Z,97000.77
2023-11-04T03:09:32.686Z,-1.00
2023-11-04T03:14:36.401Z,-1.00
2023-11-04T03:19:39.847Z,-1.00
2023-11-04T03:24:46.524Z,-1.00
2023-11-04T03:29:49.855Z,-1.00
2023-11-04T03:34:52.862Z,-1.00
2023-11-04T03:39:55.931Z,-1.00
2023-11-04T03:44:58.976Z,-1.00
2023-11-04T03:50:02.808Z,-1.00
2023-11-04T03:55:06.447Z,-1.00
2023-11-04T04:00:10.389Z,-1.00
2023-11-04T04:05:13.504Z,-1.00
2023-11-04T04:10:17.185Z,-1.00
2023-11-04T04:15:20.337Z,-1.00
2023-11-04T04:20:23.300Z,-1.00
2023-11-04T04:25:26.207Z,-1.00
2023-11-04T04:30:29.229Z,-1.00
2023-11-04T04:35:32.240Z,-1.00
2023-11-04T04:40:35.244Z,-1.00
2023-11-04T04:45:41.972Z,-1.00
2023-11-04T04:50:45.051Z,-1.00
2023-11-04T04:55:48.987Z,-1.00
2023-11-04T05:00:52.098Z,-1.00
2023-11-04T05:05:55.419Z,-1.00
2023-11-04T05:10:59.734Z,-1.00
2023-11-04T05:16:02.757Z,-1.00
2023-11-04T05:21:06.842Z,-1.00
2023-11-04T05:26:09.864Z,-1.00
2023-11-04T05:31:12.706Z,-1.00
2023-11-04T05:36:19.946Z,-1.00
2023-11-04T05:41:23.084Z,-1.00
2023-11-04T05:46:26.090Z,-1.00
2023-11-04T05:51:29.125Z,-1.00
2023-11-04T05:56:32.110Z,-1.00
2023-11-04T06:01:35.212Z,-1.00
2023-11-04T06:06:38.309Z,-1.00
2023-11-04T06:11:41.452Z,-1.00
2023-11-04T06:16:44.749Z,-1.00
2023-11-04T06:21:48.200Z,-1.00
2023-11-04T06:26:51.289Z,-1.00
2023-11-04T06:31:54.280Z,-1.00
2023-11-04T06:36:57.350Z,-1.00
2023-11-04T06:42:01.117Z,-1.00
2023-11-04T06:47:04.228Z,-1.00
2023-11-04T06:52:07.227Z,-1.00
2023-11-04T06:57:10.248Z,-1.00
2023-11-04T07:02:13.760Z,-1.00
2023-11-04T07:07:16.864Z,-1.00
2023-11-04T07:12:19.975Z,-1.00
2023-11-04T07:17:23.002Z,-1.00
2023-11-04T07:22:25.925Z,-1.00
2023-11-04T07:27:29.399Z,-1.00
2023-11-04T07:32:32.338Z,-1.00
2023-11-04T07:37:35.522Z,-1.00
2023-11-04T07:42:38.849Z,-1.00
2023-11-04T07:47:42.567Z,-1.00
2023-11-04T07:52:54.480Z,-1.00
2023-11-04T07:58:02.078Z,-1.00
2023-11-04T08:03:05.237Z,-1.00
2023-11-04T08:08:11.496Z,-1.00
2023-11-04T08:13:14.953Z,-1.00
2023-11-04T08:18:18.200Z,-1.00
2023-11-04T08:23:21.932Z,-1.00
2023-11-04T08:28:26.683Z,-1.00
2023-11-04T08:33:29.739Z,-1.00
2023-11-04T08:38:34.233Z,-1.00
2023-11-04T08:43:37.243Z,-1.00
2023-11-04T08:48:41.994Z,-1.00
2023-11-04T08:53:45.199Z,-1.00
2023-11-04T08:58:48.412Z,-1.00
2023-11-04T09:03:58.892Z,-1.00
2023-11-04T09:09:10.613Z,-1.00
2023-11-04T09:14:13.609Z,-1.00
2023-11-04T09:19:17.047Z,-1.00
2023-11-04T09:24:20.934Z,-1.00
2023-11-04T09:29:25.690Z,-1.00
2023-11-04T09:34:30.118Z,-1.00
2023-11-04T09:39:33.918Z,-1.00
2023-11-04T09:44:37.720Z,-1.00
2023-11-04T09:49:40.777Z,-1.00
2023-11-04T09:54:48.461Z,-1.00
2023-11-04T09:59:51.842Z,-1.00
2023-11-04T10:04:56.527Z,-1.00
2023-11-04T10:09:59.754Z,-1.00
2023-11-04T10:15:02.802Z,-1.00
2023-11-04T10:20:12.599Z,-1.00
2023-11-04T10:25:16.188Z,-1.00
2023-11-04T10:30:19.600Z,-1.00
2023-11-04T10:35:24.573Z,-1.00
2023-11-04T10:40:28.114Z,-1.00
2023-11-04T10:45:50.662Z,-1.00
2023-11-04T10:51:08.928Z,-1.00
2023-11-04T10:56:42.733Z,-1.00
2023-11-04T11:01:48.232Z,-1.00
2023-11-04T11:06:52.770Z,-1.00
2023-11-04T11:12:03.546Z,-1.00
2023-11-04T11:17:09.171Z,-1.00
2023-11-04T11:22:25.416Z,-1.00
2023-11-04T11:27:28.627Z,-1.00
2023-11-04T11:32:36.363Z,-1.00
2023-11-04T11:37:39.455Z,-1.00
2023-11-04T11:42:42.791Z,-1.00
2023-11-04T11:47:45.834Z,-1.00
2023-11-04T11:52:48.984Z,-1.00
2023-11-04T11:57:52.628Z,-1.00
2023-11-04T12:02:56.124Z,-1.00
2023-11-04T12:07:59.866Z,-1.00
2023-11-04T12:13:03.125Z,-1.00
2023-11-04T12:18:07.561Z,-1.00
2023-11-04T12:23:12.062Z,-1.00
2023-11-04T12:28:15.520Z,-1.00
2023-11-04T12:33:21.256Z,-1.00
2023-11-04T12:38:25.169Z,-1.00
2023-11-04T12:43:29.403Z,-1.00
2023-11-04T12:48:33.137Z,-1.00
2023-11-04T12:53:36.433Z,-1.00
2023-11-04T12:58:39.905Z,-1.00
2023-11-04T13:03:43.414Z,-1.00
2023-11-04T13:08:46.597Z,-1.00
2023-11-04T13:13:49.597Z,-1.00
2023-11-04T13:18:53.320Z,-1.00
2023-11-04T13:23:56.424Z,-1.00
2023-11-04T13:28:59.942Z,-1.00
2023-11-04T13:34:03.548Z,-1.00
2023-11-04T13:39:12.477Z,-1.00
2023-11-04T13:44:16.128Z,-1.00
2023-11-04T13:49:19.793Z,-1.00
2023-11-04T13:54:23.476Z,-1.00
2023-11-04T13:59:26.581Z,-1.00
2023-11-04T14:04:29.635Z,-1.00
2023-11-04T14:09:32.807Z,-1.00
2023-11-04T14:14:36.154Z,-1.00
2023-11-04T14:19:39.559Z,-1.00
2023-11-04T14:24:42.715Z,-1.00
2023-11-04T14:29:46.259Z,-1.00
2023-11-04T14:34:50.101Z,-1.00
2023-11-04T14:39:54.163Z,-1.00
2023-11-04T14:44:57.749Z,-1.00
2023-11-04T14:50:02.398Z,-1.00
2023-11-04T14:55:07.704Z,-1.00
2023-11-04T15:00:11.900Z,-1.00
2023-11-04T15:05:14.932Z,-1.00
2023-11-04T15:10:18.158Z,-1.00
2023-11-04T15:15:21.210Z,-1.00
2023-11-04T15:20:24.222Z,-1.00
2023-11-04T15:25:27.240Z,-1.00
2023-11-04T15:30:30.591Z,-1.00
2023-11-04T15:35:34.406Z,-1.00
2023-11-04T15:40:38.907Z,-1.00
2023-11-04T15:45:42.040Z,-1.00
2023-11-04T15:50:45.450Z,-1.00
2023-11-04T15:55:48.698Z,-1.00
2023-11-04T16:00:55.155Z,-1.00
2023-11-04T16:05:58.135Z,-1.00
2023-11-04T16:11:01.490Z,-1.00
2023-11-04T16:16:07.097Z,-1.00
2023-11-04T16:21:10.126Z,-1.00
2023-11-04T16:26:14.547Z,-1.00
2023-11-04T16:31:24.383Z,-1.00
2023-11-04T16:36:27.693Z,-1.00
2023-11-04T16:41:30.656Z,-1.00
2023-11-04T16:46:33.674Z,-1.00
2023-11-04T16:51:36.881Z,-1.00
2023-11-04T16:56:40.197Z,-1.00
2023-11-04T17:01:43.195Z,-1.00
2023-11-04T17:06:46.221Z,-1.00
2023-11-04T17:11:49.312Z,-1.00
2023-11-04T17:16:52.523Z,-1.00
2023-11-04T17:21:55.969Z,-1.00
2023-11-04T17:26:59.047Z,-1.00
2023-11-04T17:32:02.069Z,-1.00
2023-11-04T17:37:05.132Z,-1.00
2023-11-04T17:42:08.169Z,-1.00
2023-11-04T17:47:11.180Z,-1.00
2023-11-04T17:52:14.233Z,-1.00
2023-11-04T17:57:17.293Z,-1.00
2023-11-04T18:02:20.315Z,-1.00
2023-11-04T18:07:25.193Z,-1.00
2023-11-04T18:12:28.369Z,-1.00
2023-11-04T18:17:31.445Z,-1.00
2023-11-04T18:22:34.894Z,-1.00
2023-11-04T18:27:51.089Z,-1.00
2023-11-04T18:33:01.639Z,-1.00
2023-11-04T18:38:04.849Z,-1.00
2023-11-04T18:43:08.227Z,-1.00
2023-11-04T18:48:11.416Z,-1.00
2023-11-04T18:53:14.837Z,-1.00
2023-11-04T18:58:17.963Z,-1.00
2023-11-04T19:03:21.059Z,-1.00
2023-11-04T19:08:25.103Z,-1.00
2023-11-04T19:13:28.232Z,-1.00
2023-11-04T19:18:31.486Z,-1.00
2023-11-04T19:23:35.605Z,-1.00
2023-11-04T19:28:38.670Z,-1.00
2023-11-04T19:33:41.840Z,-1.00
2023-11-04T19:38:45.110Z,-1.00
2023-11-04T19:43:48.937Z,-1.00
2023-11-04T19:48:52.252Z,-1.00
2023-11-04T19:53:55.639Z,-1.00
2023-11-04T19:58:58.984Z,-1.00
2023-11-04T20:04:02.950Z,-1.00
2023-11-04T20:09:07.226Z,-1.00
2023-11-04T20:14:11.042Z,-1.00
2023-11-04T20:19:16.414Z,-1.00
2023-11-04T20:24:22.273Z,-1.00
2023-11-04T20:29:26.106Z,-1.00
2023-11-04T20:34:29.357Z,-1.00
2023-11-04T20:39:33.044Z,-1.00
2023-11-04T20:44:36.352Z,-1.00
2023-11-04T20:49:40.040Z,-1.00
2023-11-04T20:54:43.489Z,-1.00
2023-11-04T20:59:47.013Z,-1.00
2023-11-04T21:04:50.130Z,-1.00
2023-11-04T21:09:53.510Z,-1.00
2023-11-04T21:14:56.961Z,-1.00
2023-11-04T21:20:00.986Z,-1.00
2023-11-04T21:25:04.206Z,-1.00
2023-11-04T21:30:08.944Z,-1.00
2023-11-04T21:35:12.057Z,-1.00
2023-11-04T21:40:15.291Z,-1.00
2023-11-04T21:45:19.566Z,-1.00
2023-11-04T21:50:26.800Z,-1.00
2023-11-04T21:55:29.763Z,-1.00
2023-11-04T22:00:32.817Z,-1.00
2023-11-04T22:05:37.357Z,-1.00
2023-11-04T22:10:41.693Z,-1.00
2023-11-04T22:15:45.116Z,-1.00
2023-11-04T22:20:48.122Z,-1.00
2023-11-04T22:25:51.474Z,-1.00
2023-11-04T22:30:54.580Z,-1.00
2023-11-04T22:35:57.554Z,-1.00
2023-11-04T22:41:02.267Z,-1.00
2023-11-04T22:46:06.047Z,-1.00
2023-11-04T22:51:09.039Z,-1.00
2023-11-04T22:56:12.042Z,-1.00
2023-11-04T23:01:21.253Z,-1.00
2023-11-04T23:06:26.959Z,-1.00
2023-11-04T23:11:32.184Z,-1.00
2023-11-04T23:16:35.609Z,-1.00
2023-11-04T23:21:38.646Z,-1.00
2023-11-04T23:26:41.686Z,-1.00
2023-11-04T23:31:44.766Z,-1.00
2023-11-04T23:36:47.779Z,-1.00
2023-11-04T23:41:50.990Z,-1.00
2023-11-04T23:46:54.088Z,-1.00
2023-11-04T23:51:57.206Z,-1.00
2023-11-04T23:57:00.204Z,-1.00
